Time;durP1;ratioP1;P1;durP2;ratioP2;P2;SDS_P1;SDS_P2;PMS_P1;PMS_P2;Temp;Humidity;BMP_temperature;BMP_pressure;BME280_temperature;BME280_humidity;BME280_pressure;Samples;Min_cycle;Max_cycle;Signal;HPM_P1;HPM_P2
2022/09/19 00:01:07;;;;;;;1.15;0.95;;;;;;;;;;5135011;28;20115;-22
2022/09/19 00:03:33;;;;;;;1.20;0.80;;;;;;;;;;5134748;28;20156;-22
2022/09/19 00:05:59;;;;;;;0.65;0.63;;;;;;;;;;5134623;28;20486;-23
2022/09/19 00:08:25;;;;;;;0.60;0.60;;;;;;;;;;5134829;28;20047;-22
2022/09/19 00:10:53;;;;;;;1.23;0.80;;;;;;;;;;5136526;27;20035;-22
2022/09/19 00:13:19;;;;;;;0.60;0.60;;;;;;;;;;5116968;28;20051;-23
2022/09/19 00:15:49;;;;;;;1.25;0.90;;;;;;;;;;5118106;28;20036;-27
2022/09/19 00:18:16;;;;;;;1.55;0.70;;;;;;;;;;5118198;28;20031;-22
2022/09/19 00:20:44;;;;;;;0.70;0.68;;;;;;;;;;5117802;28;20446;-22
2022/09/19 00:26:02;;;;;;;0.75;0.52;;;;;;;;;;5117599;28;20039;-20
2022/09/19 00:28:29;;;;;;;1.13;0.70;;;;;;;;;;5117890;28;20034;-22
2022/09/19 00:30:55;;;;;;;1.02;0.90;;;;;;;;;;5117811;28;20125;-22
2022/09/19 00:33:22;;;;;;;0.73;0.73;;;;;;;;;;5117443;28;20028;-23
2022/09/19 00:35:54;;;;;;;1.60;0.85;;;;;;;;;;5117426;28;20443;-23
2022/09/19 00:38:21;;;;;;;2.50;0.95;;;;;;;;;;5117712;28;20054;-24
2022/09/19 00:40:48;;;;;;;0.90;0.90;;;;;;;;;;5117422;28;20032;-22
2022/09/19 00:43:14;;;;;;;1.45;0.73;;;;;;;;;;5117257;28;20049;-22
2022/09/19 00:45:41;;;;;;;0.75;0.65;;;;;;;;;;5117296;28;20085;-22
2022/09/19 00:48:07;;;;;;;1.55;0.90;;;;;;;;;;5117173;28;20058;-22
2022/09/19 00:50:34;;;;;;;0.88;0.65;;;;;;;;;;5117189;28;20096;-23
2022/09/19 00:53:02;;;;;;;1.25;0.68;;;;;;;;;;5117154;28;20114;-24
2022/09/19 00:55:28;;;;;;;0.80;0.80;;;;;;;;;;5117086;28;20028;-24
2022/09/19 00:58:13;;;;;;;0.70;0.60;;;;;;;;;;5117003;28;20036;-25
2022/09/19 01:00:39;;;;;;;0.77;0.60;;;;;;;;;;5117553;28;20028;-24
2022/09/19 01:03:09;;;;;;;1.30;0.68;;;;;;;;;;5116878;28;20024;-23
2022/09/19 01:05:56;;;;;;;1.20;0.70;;;;;;;;;;5116788;28;20038;-23
2022/09/19 01:08:25;;;;;;;2.03;0.82;;;;;;;;;;5086108;28;20413;-22
2022/09/19 01:10:51;;;;;;;1.30;1.20;;;;;;;;;;5117515;28;20035;-23
2022/09/19 01:13:44;;;;;;;1.92;1.00;;;;;;;;;;5125522;27;20039;-23
2022/09/19 01:16:18;;;;;;;0.73;0.70;;;;;;;;;;5131582;27;20336;-23
2022/09/19 01:18:48;;;;;;;1.10;1.05;;;;;;;;;;5137155;27;20027;-24
2022/09/19 01:21:39;;;;;;;1.08;0.98;;;;;;;;;;5137164;27;20055;-26
2022/09/19 01:24:32;;;;;;;1.02;0.93;;;;;;;;;;5137521;27;20031;-23
2022/09/19 01:27:18;;;;;;;0.70;0.60;;;;;;;;;;5132819;27;20058;-24
2022/09/19 01:29:52;;;;;;;1.05;0.80;;;;;;;;;;5136948;27;20038;-21
2022/09/19 01:32:21;;;;;;;2.70;1.00;;;;;;;;;;5137487;27;20019;-21
2022/09/19 01:34:52;;;;;;;2.00;0.80;;;;;;;;;;5137028;27;20023;-21
2022/09/19 01:37:20;;;;;;;2.38;0.90;;;;;;;;;;5137116;27;20023;-22
2022/09/19 01:39:47;;;;;;;1.30;0.88;;;;;;;;;;5137057;27;20125;-22
2022/09/19 01:42:15;;;;;;;0.77;0.77;;;;;;;;;;5136964;27;20020;-22
2022/09/19 01:44:41;;;;;;;0.90;0.65;;;;;;;;;;5136502;27;20027;-22
2022/09/19 01:47:19;;;;;;;0.70;0.70;;;;;;;;;;5136623;27;20444;-23
2022/09/19 01:50:23;;;;;;;1.65;0.55;;;;;;;;;;5136856;27;20015;-22
2022/09/19 01:52:51;;;;;;;0.95;0.60;;;;;;;;;;5033738;28;20084;-22
2022/09/19 01:55:17;;;;;;;2.95;0.70;;;;;;;;;;5118754;27;20471;-22
2022/09/19 01:57:52;;;;;;;1.00;0.70;;;;;;;;;;5136659;27;20360;-25
2022/09/19 02:00:21;;;;;;;1.48;0.85;;;;;;;;;;5136765;27;20024;-22
2022/09/19 02:02:47;;;;;;;1.15;0.63;;;;;;;;;;5136212;27;20030;-22
2022/09/19 02:05:37;;;;;;;1.15;0.90;;;;;;;;;;5136482;27;20035;-22
2022/09/19 02:08:09;;;;;;;0.80;0.80;;;;;;;;;;5123316;27;20032;-21
2022/09/19 02:10:39;;;;;;;0.90;0.85;;;;;;;;;;5136123;27;20023;-22
2022/09/19 02:13:09;;;;;;;0.90;0.80;;;;;;;;;;5135917;27;20057;-22
2022/09/19 02:15:36;;;;;;;1.02;0.70;;;;;;;;;;5117870;27;20027;-24
2022/09/19 02:18:06;;;;;;;1.25;0.77;;;;;;;;;;5136071;27;20019;-21
2022/09/19 02:20:33;;;;;;;0.98;0.90;;;;;;;;;;5136194;27;20367;-21
2022/09/19 02:23:05;;;;;;;1.30;0.80;;;;;;;;;;5135832;27;20026;-24
2022/09/19 02:25:33;;;;;;;1.30;0.93;;;;;;;;;;5136098;27;20393;-23
2022/09/19 02:28:01;;;;;;;0.68;0.60;;;;;;;;;;5117737;27;20060;-21
2022/09/19 02:30:27;;;;;;;0.70;0.70;;;;;;;;;;5136127;27;20371;-23
2022/09/19 02:32:54;;;;;;;1.52;1.10;;;;;;;;;;5117255;27;20030;-22
2022/09/19 02:35:34;;;;;;;1.38;1.10;;;;;;;;;;5135890;27;20027;-22
2022/09/19 02:38:05;;;;;;;1.02;0.65;;;;;;;;;;5135770;27;20452;-22
2022/09/19 02:40:35;;;;;;;0.85;0.50;;;;;;;;;;5135989;27;20031;-23
2022/09/19 02:43:08;;;;;;;1.07;0.90;;;;;;;;;;5135535;27;20038;-21
2022/09/19 02:45:36;;;;;;;1.63;0.70;;;;;;;;;;5118268;27;20106;-21
2022/09/19 02:48:12;;;;;;;1.05;0.80;;;;;;;;;;5135482;27;20049;-21
2022/09/19 02:50:41;;;;;;;0.70;0.60;;;;;;;;;;5135818;27;20515;-22
2022/09/19 02:53:11;;;;;;;0.93;0.80;;;;;;;;;;5135731;27;20039;-24
2022/09/19 02:55:44;;;;;;;1.20;0.77;;;;;;;;;;5135676;27;20023;-22
2022/09/19 02:58:11;;;;;;;2.88;0.80;;;;;;;;;;5136003;27;20023;-23
2022/09/19 03:00:38;;;;;;;1.30;0.80;;;;;;;;;;5135397;27;20038;-24
2022/09/19 03:05:58;;;;;;;0.57;0.50;;;;;;;;;;5135634;28;20161;-22
2022/09/19 03:08:25;;;;;;;0.98;0.70;;;;;;;;;;5135292;28;20023;-23
2022/09/19 03:10:53;;;;;;;0.70;0.68;;;;;;;;;;5135855;28;20380;-22
2022/09/19 03:13:24;;;;;;;1.15;0.70;;;;;;;;;;5135187;28;20391;-21
2022/09/19 03:15:56;;;;;;;1.08;1.00;;;;;;;;;;5117504;28;20042;-22
2022/09/19 03:18:24;;;;;;;0.98;0.80;;;;;;;;;;5135520;28;20072;-22
2022/09/19 03:20:53;;;;;;;0.82;0.80;;;;;;;;;;5135195;28;20051;-22
2022/09/19 03:23:23;;;;;;;0.73;0.73;;;;;;;;;;5135924;28;20031;-23
2022/09/19 03:25:50;;;;;;;1.42;0.80;;;;;;;;;;5135066;28;20030;-25
2022/09/19 03:28:19;;;;;;;0.90;0.80;;;;;;;;;;5135152;28;20023;-22
2022/09/19 03:30:46;;;;;;;0.85;0.50;;;;;;;;;;5135052;28;20023;-21
2022/09/19 03:33:15;;;;;;;0.75;0.57;;;;;;;;;;5135064;28;20043;-21
2022/09/19 03:35:42;;;;;;;0.52;0.52;;;;;;;;;;5134930;28;20031;-23
2022/09/19 03:38:09;;;;;;;1.35;0.98;;;;;;;;;;5134932;28;20123;-22
2022/09/19 03:40:37;;;;;;;0.85;0.70;;;;;;;;;;5135280;28;20027;-22
2022/09/19 03:43:04;;;;;;;1.15;0.82;;;;;;;;;;5135124;28;20102;-23
2022/09/19 03:45:30;;;;;;;0.93;0.65;;;;;;;;;;5136994;27;20027;-22
2022/09/19 03:47:56;;;;;;;0.80;0.73;;;;;;;;;;5139252;27;20435;-22
2022/09/19 03:50:23;;;;;;;0.65;0.65;;;;;;;;;;5138761;27;20023;-25
2022/09/19 03:52:49;;;;;;;0.60;0.60;;;;;;;;;;5139084;27;20361;-23
2022/09/19 03:55:16;;;;;;;0.60;0.60;;;;;;;;;;5138691;27;20027;-22
2022/09/19 03:57:42;;;;;;;1.35;1.10;;;;;;;;;;5138982;27;20102;-22
2022/09/19 04:00:08;;;;;;;0.68;0.60;;;;;;;;;;5139073;27;20031;-22
2022/09/19 04:02:35;;;;;;;0.95;0.70;;;;;;;;;;5138712;27;20087;-23
2022/09/19 04:05:02;;;;;;;0.77;0.57;;;;;;;;;;5138695;27;20041;-22
2022/09/19 04:07:28;;;;;;;0.60;0.60;;;;;;;;;;5138580;27;20406;-22
2022/09/19 04:09:54;;;;;;;1.10;0.60;;;;;;;;;;5139063;27;20066;-22
2022/09/19 04:12:21;;;;;;;1.55;0.73;;;;;;;;;;5138655;27;20034;-22
2022/09/19 04:14:48;;;;;;;0.70;0.60;;;;;;;;;;5138508;27;20019;-22
2022/09/19 04:17:14;;;;;;;0.70;0.70;;;;;;;;;;5138694;27;20027;-22
2022/09/19 04:19:42;;;;;;;0.95;0.45;;;;;;;;;;5138214;27;20110;-22
2022/09/19 04:22:09;;;;;;;0.63;0.63;;;;;;;;;;5138509;27;20116;-23
2022/09/19 04:24:38;;;;;;;0.82;0.60;;;;;;;;;;5138195;27;20035;-22
2022/09/19 04:27:08;;;;;;;0.80;0.60;;;;;;;;;;5138059;27;20023;-22
2022/09/19 04:29:35;;;;;;;0.98;0.55;;;;;;;;;;5138274;27;20118;-22
2022/09/19 04:32:02;;;;;;;1.23;0.88;;;;;;;;;;5138284;27;20223;-22
2022/09/19 04:34:29;;;;;;;1.75;0.98;;;;;;;;;;5138306;27;20088;-21
2022/09/19 04:37:02;;;;;;;2.70;0.80;;;;;;;;;;5138185;27;20480;-23
2022/09/19 04:39:29;;;;;;;1.35;0.70;;;;;;;;;;5138370;27;20027;-22
2022/09/19 04:41:56;;;;;;;3.30;0.70;;;;;;;;;;5138129;27;20054;-22
2022/09/19 04:44:23;;;;;;;1.02;0.75;;;;;;;;;;5119646;27;20080;-23
2022/09/19 04:46:50;;;;;;;2.97;1.30;;;;;;;;;;5138169;27;20359;-22
2022/09/19 04:49:17;;;;;;;1.10;0.50;;;;;;;;;;5137801;27;20098;-22
2022/09/19 04:51:43;;;;;;;0.82;0.80;;;;;;;;;;5137666;27;20016;-23
2022/09/19 04:54:10;;;;;;;2.10;0.68;;;;;;;;;;5137735;27;20035;-22
2022/09/19 04:56:36;;;;;;;1.67;0.90;;;;;;;;;;5137692;27;20039;-23
2022/09/19 04:59:03;;;;;;;1.80;0.90;;;;;;;;;;5119497;27;20412;-23
2022/09/19 05:01:30;;;;;;;0.75;0.68;;;;;;;;;;5137529;27;20045;-23
2022/09/19 05:03:57;;;;;;;2.35;0.70;;;;;;;;;;5137307;27;20027;-21
2022/09/19 05:06:27;;;;;;;5.68;1.00;;;;;;;;;;5137280;27;20450;-21
2022/09/19 05:08:53;;;;;;;3.92;0.60;;;;;;;;;;5137391;27;20023;-22
2022/09/19 05:11:21;;;;;;;1.48;1.08;;;;;;;;;;5137135;27;20098;-22
2022/09/19 05:13:49;;;;;;;1.77;0.70;;;;;;;;;;5137057;27;20083;-22
2022/09/19 05:16:15;;;;;;;1.75;1.05;;;;;;;;;;5137339;27;20023;-22
2022/09/19 05:18:41;;;;;;;1.75;1.08;;;;;;;;;;5137025;27;20114;-22
2022/09/19 05:21:10;;;;;;;1.20;0.80;;;;;;;;;;5137001;27;20050;-22
2022/09/19 05:23:37;;;;;;;1.25;0.85;;;;;;;;;;5137063;27;20031;-22
2022/09/19 05:26:08;;;;;;;6.90;0.75;;;;;;;;;;5136982;27;20023;-23
2022/09/19 05:28:34;;;;;;;5.15;0.70;;;;;;;;;;5136863;27;20023;-22
2022/09/19 05:31:05;;;;;;;2.95;0.98;;;;;;;;;;5136781;27;20023;-23
2022/09/19 05:33:32;;;;;;;;;;;;;;;;;;5137159;27;20027;-22
2022/09/19 05:36:00;;;;;;;4.93;1.48;;;;;;;;;;5136556;27;19946;-21
2022/09/19 05:38:30;;;;;;;2.38;0.77;;;;;;;;;;5136703;27;20392;-21
2022/09/19 05:40:57;;;;;;;8.23;1.98;;;;;;;;;;5136609;27;20031;-22
2022/09/19 05:43:24;;;;;;;3.78;0.90;;;;;;;;;;5136848;27;20023;-21
2022/09/19 05:45:51;;;;;;;6.75;1.08;;;;;;;;;;5136515;27;20035;-22
2022/09/19 05:48:18;;;;;;;4.55;1.00;;;;;;;;;;5136719;27;20042;-22
2022/09/19 05:50:44;;;;;;;1.55;0.70;;;;;;;;;;5136382;27;20116;-22
2022/09/19 05:55:56;;;;;;;4.35;1.48;;;;;;;;;;5136578;27;20378;-21
2022/09/19 05:58:24;;;;;;;2.85;1.25;;;;;;;;;;5136518;27;20104;-23
2022/09/19 06:03:27;;;;;;;4.95;1.30;;;;;;;;;;5371378;22;20049;-31
2022/09/19 06:05:55;;;;;;;16.35;1.45;;;;;;;;;;5037459;28;20025;-25
2022/09/19 06:08:22;;;;;;;3.20;1.08;;;;;;;;;;5036608;28;20057;-26
2022/09/19 06:10:49;;;;;;;11.60;2.58;;;;;;;;;;5054971;28;20021;-25
2022/09/19 06:13:17;;;;;;;18.25;2.47;;;;;;;;;;5054875;28;20033;-26
2022/09/19 06:15:43;;;;;;;6.65;2.45;;;;;;;;;;5054708;28;20083;-26
2022/09/19 06:18:09;;;;;;;11.88;2.40;;;;;;;;;;5054948;28;20410;-25
2022/09/19 06:20:37;;;;;;;5.07;1.15;;;;;;;;;;5055010;28;20107;-25
2022/09/19 06:23:04;;;;;;;12.88;1.67;;;;;;;;;;5054490;28;20028;-25
2022/09/19 06:25:31;;;;;;;12.40;2.47;;;;;;;;;;5054649;28;20072;-26
2022/09/19 06:27:58;;;;;;;10.45;1.35;;;;;;;;;;5054910;28;20476;-25
2022/09/19 06:30:24;;;;;;;10.30;2.47;;;;;;;;;;5054815;28;20028;-25
2022/09/19 06:32:54;;;;;;;7.63;1.50;;;;;;;;;;5054977;28;20023;-26
2022/09/19 06:35:21;;;;;;;6.85;1.15;;;;;;;;;;5054792;28;20086;-26
2022/09/19 06:37:48;;;;;;;10.85;1.13;;;;;;;;;;5054367;28;20024;-25
2022/09/19 06:40:15;;;;;;;7.20;1.67;;;;;;;;;;5054371;28;20033;-25
2022/09/19 06:42:41;;;;;;;4.80;1.50;;;;;;;;;;5054248;28;20159;-25
2022/09/19 06:45:08;;;;;;;2.30;1.10;;;;;;;;;;5054340;28;20150;-25
2022/09/19 06:47:35;;;;;;;5.53;1.27;;;;;;;;;;5054132;28;20400;-26
2022/09/19 06:50:02;;;;;;;11.35;1.52;;;;;;;;;;5054313;28;20444;-26
2022/09/19 06:52:28;;;;;;;7.07;1.67;;;;;;;;;;5054035;28;20095;-25
2022/09/19 06:54:55;;;;;;;2.65;1.20;;;;;;;;;;5054382;28;20025;-25
2022/09/19 06:57:21;;;;;;;9.90;1.52;;;;;;;;;;5054280;28;20040;-26
2022/09/19 06:59:48;;;;;;;5.30;1.20;;;;;;;;;;5054241;28;20056;-25
2022/09/19 07:02:14;;;;;;;6.78;1.60;;;;;;;;;;5053895;28;20036;-25
2022/09/19 07:04:40;;;;;;;7.00;1.50;;;;;;;;;;5054176;28;20024;-25
2022/09/19 07:07:06;;;;;;;14.15;1.30;;;;;;;;;;5054070;28;20025;-26
2022/09/19 07:09:33;;;;;;;12.45;1.25;;;;;;;;;;5053922;28;20025;-25
2022/09/19 07:12:01;;;;;;;6.55;1.98;;;;;;;;;;5036372;28;20029;-25
2022/09/19 07:14:27;;;;;;;13.70;1.92;;;;;;;;;;5054293;28;20037;-25
2022/09/19 07:16:53;;;;;;;11.10;1.58;;;;;;;;;;5053957;28;20361;-25
2022/09/19 07:19:19;;;;;;;4.22;1.20;;;;;;;;;;5055298;28;20108;-25
2022/09/19 07:21:46;;;;;;;14.13;1.45;;;;;;;;;;5058076;28;20024;-25
2022/09/19 07:24:12;;;;;;;11.50;2.05;;;;;;;;;;5040640;28;20115;-26
2022/09/19 07:26:39;;;;;;;6.38;1.92;;;;;;;;;;5058112;28;20349;-25
2022/09/19 07:29:05;;;;;;;10.48;1.38;;;;;;;;;;5057718;28;20025;-25
2022/09/19 07:31:31;;;;;;;4.90;1.67;;;;;;;;;;5057851;28;20116;-26
2022/09/19 07:33:59;;;;;;;5.63;1.60;;;;;;;;;;5057635;28;20041;-25
2022/09/19 07:36:26;;;;;;;9.18;2.28;;;;;;;;;;5057841;28;20347;-26
2022/09/19 07:38:52;;;;;;;5.72;1.15;;;;;;;;;;5057824;28;20025;-26
2022/09/19 07:41:19;;;;;;;9.32;1.35;;;;;;;;;;5057735;28;20045;-25
2022/09/19 07:43:45;;;;;;;6.75;1.70;;;;;;;;;;5057600;28;20457;-25
2022/09/19 07:46:14;;;;;;;4.70;1.63;;;;;;;;;;5057630;28;20057;-26
2022/09/19 07:48:42;;;;;;;12.82;1.67;;;;;;;;;;5058078;28;20501;-26
2022/09/19 07:51:08;;;;;;;11.02;1.60;;;;;;;;;;5057493;28;20021;-25
2022/09/19 07:53:35;;;;;;;9.40;1.60;;;;;;;;;;5057603;28;20379;-25
2022/09/19 07:56:03;;;;;;;7.43;2.08;;;;;;;;;;5057748;28;20029;-25
2022/09/19 07:58:30;;;;;;;18.95;1.80;;;;;;;;;;5057600;28;20044;-25
2022/09/19 08:00:59;;;;;;;13.68;1.88;;;;;;;;;;5057522;28;20028;-24
2022/09/19 08:03:25;;;;;;;12.18;1.90;;;;;;;;;;5057072;28;20484;-25
2022/09/19 08:05:52;;;;;;;9.45;1.70;;;;;;;;;;5057272;28;20048;-25
2022/09/19 08:08:19;;;;;;;10.52;1.77;;;;;;;;;;5057168;28;20033;-26
2022/09/19 08:10:46;;;;;;;9.75;1.95;;;;;;;;;;5057490;28;20029;-25
2022/09/19 08:13:13;;;;;;;15.55;2.83;;;;;;;;;;5057228;28;20409;-25
2022/09/19 08:15:40;;;;;;;12.20;1.52;;;;;;;;;;5057154;28;20040;-25
2022/09/19 08:18:13;;;;;;;11.20;2.45;;;;;;;;;;5057239;28;20035;-25
2022/09/19 08:20:40;;;;;;;8.57;2.25;;;;;;;;;;5057136;28;20108;-25
2022/09/19 08:23:07;;;;;;;13.23;1.80;;;;;;;;;;5057140;28;20053;-25
2022/09/19 08:25:34;;;;;;;10.07;2.20;;;;;;;;;;5057071;28;20468;-25
2022/09/19 08:28:04;;;;;;;11.90;1.80;;;;;;;;;;5057518;28;20108;-25
2022/09/19 08:30:32;;;;;;;15.45;2.88;;;;;;;;;;5056473;28;20047;-25
2022/09/19 08:33:00;;;;;;;8.48;1.77;;;;;;;;;;5056614;28;20028;-25
2022/09/19 08:35:27;;;;;;;10.75;2.15;;;;;;;;;;5057074;28;20040;-25
2022/09/19 08:37:54;;;;;;;8.98;1.85;;;;;;;;;;5056860;28;20164;-25
2022/09/19 08:40:28;;;;;;;9.15;1.92;;;;;;;;;;5039181;28;20135;-25
2022/09/19 08:43:00;;;;;;;18.67;2.88;;;;;;;;;;5056597;28;20062;-26
2022/09/19 08:45:56;;;;;;;15.20;1.95;;;;;;;;;;5057082;28;20034;-26
2022/09/19 08:48:25;;;;;;;15.60;2.50;;;;;;;;;;5022654;28;20033;-25
2022/09/19 08:50:56;;;;;;;6.65;1.70;;;;;;;;;;5056665;28;20357;-26
2022/09/19 08:53:27;;;;;;;19.27;3.13;;;;;;;;;;5056838;28;20029;-25
2022/09/19 08:55:56;;;;;;;10.13;2.10;;;;;;;;;;5056536;28;20131;-28
2022/09/19 08:58:23;;;;;;;13.75;2.03;;;;;;;;;;5056355;28;20037;-25
2022/09/19 09:00:51;;;;;;;10.80;1.77;;;;;;;;;;5056854;28;20033;-25
2022/09/19 09:03:20;;;;;;;14.52;2.15;;;;;;;;;;5056057;28;20147;-25
2022/09/19 09:05:55;;;;;;;9.00;2.33;;;;;;;;;;5056341;28;20025;-26
2022/09/19 09:08:40;;;;;;;23.30;2.45;;;;;;;;;;5056244;28;20017;-25
2022/09/19 09:11:25;;;;;;;13.50;1.85;;;;;;;;;;5056235;28;20075;-25
2022/09/19 09:13:58;;;;;;;23.52;3.00;;;;;;;;;;5056034;28;20047;-24
2022/09/19 09:16:42;;;;;;;11.80;1.77;;;;;;;;;;5056106;28;20033;-25
2022/09/19 09:19:27;;;;;;;10.07;2.38;;;;;;;;;;5056254;28;20037;-24
2022/09/19 09:22:12;;;;;;;12.75;2.08;;;;;;;;;;5056158;28;20032;-25
2022/09/19 09:24:43;;;;;;;22.40;2.75;;;;;;;;;;5056103;28;20029;-26
2022/09/19 09:27:19;;;;;;;13.20;2.35;;;;;;;;;;5055959;28;20028;-25
2022/09/19 09:29:50;;;;;;;6.78;2.20;;;;;;;;;;5056259;28;20021;-26
2022/09/19 09:32:16;;;;;;;;;;;;;;;;;;5055982;28;20031;-25
2022/09/19 09:34:47;;;;;;;9.43;2.38;;;;;;;;;;5055769;28;19916;-26
2022/09/19 09:37:20;;;;;;;7.20;1.73;;;;;;;;;;5038179;28;20043;-26
2022/09/19 09:40:00;;;;;;;19.52;2.85;;;;;;;;;;5037931;28;20029;-26
2022/09/19 09:42:40;;;;;;;13.20;2.63;;;;;;;;;;5037455;28;20056;-25
2022/09/19 09:45:23;;;;;;;13.95;2.85;;;;;;;;;;5055844;28;20036;-26
2022/09/19 09:47:59;;;;;;;12.60;1.95;;;;;;;;;;5055493;28;20082;-26
2022/09/19 09:50:28;;;;;;;12.90;2.20;;;;;;;;;;5055241;28;20093;-26
2022/09/19 09:53:10;;;;;;;10.45;1.92;;;;;;;;;;5055523;28;20084;-25
2022/09/19 09:58:33;;;;;;;11.02;3.08;;;;;;;;;;5055830;28;20035;-25
2022/09/19 10:04:06;;;;;;;13.93;2.45;;;;;;;;;;5054964;28;20056;-25
2022/09/19 10:06:38;;;;;;;15.30;2.40;;;;;;;;;;5055060;28;20021;-25
2022/09/19 10:09:11;;;;;;;16.80;1.88;;;;;;;;;;5055070;28;20025;-25
2022/09/19 10:11:47;;;;;;;20.25;1.92;;;;;;;;;;5055068;28;20481;-27
2022/09/19 10:14:20;;;;;;;14.35;1.60;;;;;;;;;;5055629;28;20025;-25
2022/09/19 10:16:48;;;;;;;15.25;2.75;;;;;;;;;;5055048;28;20116;-25
2022/09/19 10:19:43;;;;;;;18.92;3.42;;;;;;;;;;5054945;28;20017;-25
2022/09/19 10:22:17;;;;;;;22.50;2.40;;;;;;;;;;5020680;28;20132;-25
2022/09/19 10:24:43;;;;;;;19.25;2.47;;;;;;;;;;5055349;28;20032;-25
2022/09/19 10:27:23;;;;;;;14.35;2.75;;;;;;;;;;5054802;28;20045;-25
2022/09/19 10:29:52;;;;;;;15.43;1.83;;;;;;;;;;5054731;28;20036;-25
2022/09/19 10:32:22;;;;;;;16.95;3.90;;;;;;;;;;5054917;28;20021;-25
2022/09/19 10:34:50;;;;;;;18.33;2.17;;;;;;;;;;5054967;28;20407;-25
2022/09/19 10:37:18;;;;;;;12.32;3.67;;;;;;;;;;5055712;28;20330;-25
2022/09/19 10:39:46;;;;;;;15.60;3.67;;;;;;;;;;5054525;28;20033;-25
2022/09/19 10:42:31;;;;;;;25.67;5.53;;;;;;;;;;5054698;28;20086;-25
2022/09/19 10:45:01;;;;;;;15.15;2.85;;;;;;;;;;5054922;28;20040;-25
2022/09/19 10:47:28;;;;;;;20.88;2.67;;;;;;;;;;5036952;28;20017;-26
2022/09/19 10:49:59;;;;;;;14.70;2.42;;;;;;;;;;5054389;28;20025;-26
2022/09/19 10:52:30;;;;;;;16.23;1.90;;;;;;;;;;5054860;28;20354;-25
2022/09/19 10:54:58;;;;;;;20.85;3.38;;;;;;;;;;5036593;28;20087;-25
2022/09/19 10:57:40;;;;;;;12.95;2.22;;;;;;;;;;5054337;28;20457;-24
2022/09/19 11:00:20;;;;;;;11.50;2.20;;;;;;;;;;5054207;28;20040;-25
2022/09/19 11:02:54;;;;;;;11.85;2.40;;;;;;;;;;5054114;28;20064;-25
2022/09/19 11:05:26;;;;;;;16.73;2.58;;;;;;;;;;5037098;28;20025;-24
2022/09/19 11:07:57;;;;;;;9.80;1.50;;;;;;;;;;5054146;28;20031;-24
2022/09/19 11:10:23;;;;;;;;;;;;;;;;;;5054570;28;20025;-25
2022/09/19 11:13:05;;;;;;;9.20;2.22;;;;;;;;;;5054153;28;19919;-25
2022/09/19 11:15:37;;;;;;;15.15;2.47;;;;;;;;;;5054018;28;20059;-25
2022/09/19 11:18:19;;;;;;;20.03;2.93;;;;;;;;;;5054202;28;20382;-25
2022/09/19 11:20:45;;;;;;;14.00;2.10;;;;;;;;;;5054080;28;20087;-25
2022/09/19 11:23:28;;;;;;;12.10;1.60;;;;;;;;;;5053897;28;20059;-24
2022/09/19 11:26:09;;;;;;;12.98;1.85;;;;;;;;;;5054174;28;20414;-25
2022/09/19 11:28:49;;;;;;;12.23;2.30;;;;;;;;;;5054542;28;20023;-26
2022/09/19 11:31:15;;;;;;;12.93;2.47;;;;;;;;;;5053926;28;20025;-26
2022/09/19 11:33:53;;;;;;;8.38;1.83;;;;;;;;;;5054037;28;20090;-26
2022/09/19 11:36:19;;;;;;;10.65;1.58;;;;;;;;;;5054639;28;20416;-25
2022/09/19 11:38:53;;;;;;;16.08;2.58;;;;;;;;;;5036387;28;20025;-26
2022/09/19 11:41:33;;;;;;;26.65;2.63;;;;;;;;;;5054115;28;20376;-25
2022/09/19 11:44:17;;;;;;;11.45;2.08;;;;;;;;;;5036755;28;20029;-26
2022/09/19 11:47:12;;;;;;;14.45;2.10;;;;;;;;;;5053739;28;20174;-26
2022/09/19 11:49:51;;;;;;;16.98;2.80;;;;;;;;;;5054876;28;20346;-26
2022/09/19 11:52:29;;;;;;;34.13;3.95;;;;;;;;;;5054013;28;20378;-26
2022/09/19 11:55:15;;;;;;;16.38;3.35;;;;;;;;;;5054221;28;20102;-25
2022/09/19 11:57:48;;;;;;;13.43;2.38;;;;;;;;;;5053859;28;20364;-24
2022/09/19 12:00:25;;;;;;;21.88;3.42;;;;;;;;;;5036083;28;20510;-25
2022/09/19 12:02:58;;;;;;;21.67;3.22;;;;;;;;;;5053358;28;20052;-25
2022/09/19 12:05:27;;;;;;;16.55;2.25;;;;;;;;;;5053713;28;20098;-25
2022/09/19 12:08:12;;;;;;;18.08;2.85;;;;;;;;;;5057326;28;20028;-26
2022/09/19 12:10:45;;;;;;;23.67;3.20;;;;;;;;;;5057643;28;20024;-26
2022/09/19 12:13:14;;;;;;;19.02;2.58;;;;;;;;;;5057072;28;20140;-25
2022/09/19 12:15:44;;;;;;;14.48;2.42;;;;;;;;;;5057171;28;20020;-25
2022/09/19 12:18:13;;;;;;;16.30;2.85;;;;;;;;;;5040037;28;20047;-25
2022/09/19 12:20:45;;;;;;;19.67;2.72;;;;;;;;;;5039971;28;20033;-25
2022/09/19 12:26:18;;;;;;;13.10;2.38;;;;;;;;;;5057178;28;20526;-25
2022/09/19 12:28:49;;;;;;;16.02;2.75;;;;;;;;;;5039532;28;20029;-27
2022/09/19 12:31:20;;;;;;;23.20;2.78;;;;;;;;;;5057081;28;20021;-25
2022/09/19 12:33:51;;;;;;;14.50;2.42;;;;;;;;;;5057268;28;20039;-25
2022/09/19 12:36:21;;;;;;;19.20;2.83;;;;;;;;;;5057023;28;20033;-25
2022/09/19 12:38:47;;;;;;;14.07;2.70;;;;;;;;;;5056877;28;20028;-25
2022/09/19 12:41:14;;;;;;;20.23;2.63;;;;;;;;;;5056768;28;20037;-25
2022/09/19 12:44:13;;;;;;;12.45;2.42;;;;;;;;;;5056576;28;20108;-25
2022/09/19 12:46:42;;;;;;;11.32;3.03;;;;;;;;;;4996583;28;20040;-25
2022/09/19 12:49:26;;;;;;;19.25;3.15;;;;;;;;;;5056642;28;20035;-26
2022/09/19 12:51:59;;;;;;;17.52;2.88;;;;;;;;;;5056639;28;20363;-25
2022/09/19 12:54:38;;;;;;;16.27;2.67;;;;;;;;;;5056164;28;20021;-25
2022/09/19 12:57:08;;;;;;;16.73;2.67;;;;;;;;;;5056593;28;20108;-24
2022/09/19 12:59:36;;;;;;;11.80;3.00;;;;;;;;;;5056522;28;20025;-25
2022/09/19 13:02:02;;;;;;;13.02;2.83;;;;;;;;;;5056220;28;20033;-26
2022/09/19 13:04:37;;;;;;;25.23;2.90;;;;;;;;;;5056062;28;20052;-26
2022/09/19 13:07:09;;;;;;;17.25;2.25;;;;;;;;;;5056433;28;20104;-25
2022/09/19 13:09:35;;;;;;;;;;;;;;;;;;5056572;28;20529;-25
2022/09/19 13:12:07;;;;;;;15.02;2.67;;;;;;;;;;5056461;28;19952;-25
2022/09/19 13:14:44;;;;;;;18.48;4.20;;;;;;;;;;5056374;28;20115;-25
2022/09/19 13:25:35;;;;;;;13.15;2.65;;;;;;;;;;5056157;28;20039;-25
2022/09/19 13:28:20;;;;;;;17.95;2.20;;;;;;;;;;5056271;28;20075;-25
2022/09/19 13:30:50;;;;;;;11.93;2.10;;;;;;;;;;5056433;28;20082;-25
2022/09/19 13:33:29;;;;;;;15.65;3.05;;;;;;;;;;5055937;28;20107;-25
2022/09/19 13:36:06;;;;;;;14.02;2.22;;;;;;;;;;5056023;28;20369;-25
2022/09/19 13:38:40;;;;;;;11.73;2.75;;;;;;;;;;5055838;28;20033;-25
2022/09/19 13:41:26;;;;;;;16.50;3.25;;;;;;;;;;5055617;28;20032;-23
2022/09/19 13:44:05;;;;;;;14.35;2.35;;;;;;;;;;5055772;28;20033;-24
2022/09/19 13:46:52;;;;;;;9.23;2.05;;;;;;;;;;5055831;28;20151;-24
2022/09/19 13:49:41;;;;;;;10.57;2.40;;;;;;;;;;5037653;28;20120;-25
2022/09/19 13:52:22;;;;;;;15.30;2.83;;;;;;;;;;5055665;28;20392;-25
2022/09/19 13:54:51;;;;;;;8.07;2.20;;;;;;;;;;5056085;28;20025;-25
2022/09/19 13:57:25;;;;;;;12.23;2.30;;;;;;;;;;5055355;28;20124;-25
2022/09/19 13:59:55;;;;;;;13.30;2.22;;;;;;;;;;5055659;28;20062;-25
2022/09/19 14:02:23;;;;;;;9.63;2.20;;;;;;;;;;5038056;28;20060;-25
2022/09/19 14:05:01;;;;;;;17.77;2.45;;;;;;;;;;5055184;28;20100;-26
2022/09/19 14:07:50;;;;;;;14.05;2.92;;;;;;;;;;5055809;28;20032;-26
2022/09/19 14:10:25;;;;;;;10.80;2.67;;;;;;;;;;5055462;28;20441;-26
2022/09/19 14:12:53;;;;;;;12.93;2.00;;;;;;;;;;5055348;28;20040;-26
2022/09/19 14:15:43;;;;;;;13.32;2.10;;;;;;;;;;5055178;28;20104;-26
2022/09/19 14:18:12;;;;;;;14.18;2.45;;;;;;;;;;5055451;28;20021;-25
2022/09/19 14:20:54;;;;;;;16.70;4.10;;;;;;;;;;5055264;28;20024;-26
2022/09/19 14:23:22;;;;;;;11.25;2.70;;;;;;;;;;5054764;28;20029;-26
2022/09/19 14:26:00;;;;;;;22.10;2.70;;;;;;;;;;5055143;28;20170;-25
2022/09/19 14:28:35;;;;;;;13.82;2.72;;;;;;;;;;5036934;28;20029;-25
2022/09/19 14:31:13;;;;;;;15.10;2.60;;;;;;;;;;5054698;28;20090;-25
2022/09/19 14:33:42;;;;;;;16.95;2.40;;;;;;;;;;5054969;28;20113;-26
2022/09/19 14:36:09;;;;;;;10.07;1.83;;;;;;;;;;5055079;28;20037;-24
2022/09/19 14:38:55;;;;;;;17.70;2.63;;;;;;;;;;5054649;28;20025;-25
2022/09/19 14:41:30;;;;;;;12.32;2.78;;;;;;;;;;5040965;28;20049;-25
2022/09/19 14:44:02;;;;;;;17.35;2.30;;;;;;;;;;5054364;28;20029;-25
2022/09/19 14:46:47;;;;;;;15.50;2.28;;;;;;;;;;5054570;28;20037;-25
2022/09/19 14:49:38;;;;;;;12.55;2.17;;;;;;;;;;5055059;28;20029;-25
2022/09/19 14:52:16;;;;;;;26.25;2.95;;;;;;;;;;5054464;28;20036;-25
2022/09/19 14:54:43;;;;;;;8.13;2.03;;;;;;;;;;5054725;28;20137;-25
2022/09/19 14:57:17;;;;;;;13.73;2.55;;;;;;;;;;5054746;28;20052;-25
2022/09/19 14:59:44;;;;;;;15.73;1.95;;;;;;;;;;5054309;28;20116;-25
2022/09/19 15:02:25;;;;;;;7.82;1.95;;;;;;;;;;5036625;28;20021;-25
2022/09/19 15:04:57;;;;;;;10.48;2.40;;;;;;;;;;5054664;28;20029;-25
2022/09/19 15:07:28;;;;;;;20.95;2.53;;;;;;;;;;5054544;28;20108;-33
2022/09/19 15:09:55;;;;;;;9.32;1.92;;;;;;;;;;5036567;28;20112;-25
2022/09/19 15:12:24;;;;;;;15.05;2.53;;;;;;;;;;5036581;28;20111;-25
2022/09/19 15:14:51;;;;;;;10.40;2.03;;;;;;;;;;5054081;28;20025;-25
2022/09/19 15:17:18;;;;;;;12.82;2.58;;;;;;;;;;5054525;28;20430;-25
2022/09/19 15:19:45;;;;;;;13.80;2.20;;;;;;;;;;5036755;28;20025;-27
2022/09/19 15:22:24;;;;;;;10.32;2.42;;;;;;;;;;5054453;28;20029;-25
2022/09/19 15:24:52;;;;;;;12.05;3.70;;;;;;;;;;5036626;28;20037;-25
2022/09/19 15:27:24;;;;;;;14.57;2.13;;;;;;;;;;5036579;28;20182;-26
2022/09/19 15:29:50;;;;;;;12.70;2.83;;;;;;;;;;5054493;28;20311;-26